Hauptseite
METAR-TAF:

METAR-TAF

Flughäfen :

Flughafen Friedrichshafen

Friedrichshafen, Deutschland

Breite: 47-40N, Länge: 009-31E, Höhe: 416 m

Beobachtung

Neuester Wetterbericht von vor 29 Minuten, um 07:20 UTC
Wind 8 kt aus Nord
Temperatur 16°C
Luftfeuchtigkeit 82%
Luftdruck 1025 hPa
Sichtweite 10 km oder mehr
Leicht bewölkt in der Höhe von 2200 ft

METAR: EDNY 220720Z 01008KT 9999 FEW022 16/13 Q1025

Zeit: 09:49 (07:49 UTC)

Prognose

Neuester Wetterbericht von vor 2 Stunden und 49 Minuten, um 05:00 UTC
Gültige Prognose vom 22 um 06 UTC bis 23 um 06 UTC
Wind 6 kt aus Nord/Nordost
Sichtweite 10 km oder mehr
Durchbrochene Bewölkung in der Höhe von 3000 ft
Wahrscheinlichkeit 30% :
Zeitweise
vom 22 um 06 UTC bis 22 um 08 UTC
Durchbrochene Bewölkung in der Höhe von 1200 ft

TAF: EDNY 220500Z 2206/2306 02006KT 9999 BKN030 PROB30 TEMPO 2206/2208 BKN012

Wetterbeobachtungen und Prognosen von mehr als 4000 Flughäfen (METAR und TAF Bericht).

Die verfügbaren Stationen werden durch gelbe und rote Markierungen auf der Karte dargestellt.

Führen Sie die Maus auf sie, um den Namen der Station zu sehen.

Darauf klicken, um die Beobachtung von Wetterbeobachtungen und Prognosen zu sehen.

Um die Karte zu ändern : klicken Sie auf den grünen Tasten mit einem schwarzen Kreuz Zum Vergrößern, auf den grünen Button mit einem Gedankenstrich zu verkleinern, oder auf die grünen Pfeile für benachbarte Karten.


METAR-TAF: